Etusivu
METAR-TAF:

METAR-TAF

Lentoasemat :

Southwest Minnesota Regional Airport (Marshall/Ryan Field)

Marshall, Minnesota, Yhdysvallat

Leveyspiiri: 44-27N, Pituuspiiri: 095-49W, korkeus merenpinnasta: 359 m

Tämänhetkinen sää

Tämä raportti tehtiin 46 minuuttia sitten, kello 08.56 UTC
Tuuli 11 kn luoteesta
Lämpötila 4°C
Kosteus 70%
Ilmanpaine 1019 hPa
Näkyvyys: 16.1 km
selkeää

METAR: KMML 260856Z AUTO 31011KT 10SM CLR 04/M01 A3009 RMK AO2 SLP194 T00391006 53006

Aika: 04:42 (09:42 UTC)


TAF: puuttuu

Säähavainnot ja -ennusteet yli 4000 lentoasemalta (METAR- ja TAF-raportit).

Käytössä olevat sääasemat on merkitty karttaan keltaisilla ja punaisilla pisteillä.

Aseta hiiri pisteen päälle nähdäksesi sääaseman nimen.

Klikkaa sitten nähdäksesi säähavainnot ja -ennusteet.

Kartan vaihtaminen: klikkaa mustalla rastilla varustettuja vihreitä pisteitä, niin voit zoomata sisään; viivalla varustettua vihreää pistettä, niin voit zoomata ulos tai vihreitä nuolia, niin pääset viereisille kartoille.


METAR-TAF: